Time;durP1;ratioP1;P1;durP2;ratioP2;P2;SDS_P1;SDS_P2;PMS_P1;PMS_P2;Temp;Humidity;BMP_temperature;BMP_pressure;BME280_temperature;BME280_humidity;BME280_pressure;Samples;Min_cycle;Max_cycle;Signal;HPM_P1;HPM_P2
2023/05/14 00:00:57;;;;;;;10.95;7.63;;;;;;;-148.88;77.88;-17125.47;5013281;28;20488;-86
2023/05/14 00:03:23;;;;;;;8.55;7.50;;;;;;;-148.88;78.00;-17125.47;4995805;28;20361;-87
2023/05/14 00:05:48;;;;;;;9.68;8.00;;;;;;;-148.88;77.46;-17125.47;5013112;28;20054;-86
2023/05/14 00:08:13;;;;;;;8.85;7.95;;;;;;;-148.88;76.57;-17125.47;5013755;28;20034;-87
2023/05/14 00:10:39;;;;;;;10.00;7.25;;;;;;;-148.88;76.21;-17125.47;4996404;28;20092;-86
2023/05/14 00:13:04;;;;;;;9.73;6.97;;;;;;;-148.88;75.74;-17125.47;4995673;28;20025;-86
2023/05/14 00:15:29;;;;;;;8.25;7.30;;;;;;;-148.88;74.91;-17125.47;5013310;28;20030;-87
2023/05/14 00:17:55;;;;;;;9.88;6.57;;;;;;;-148.88;73.54;-17125.47;5013768;28;20022;-86
2023/05/14 00:20:20;;;;;;;9.35;6.78;;;;;;;-148.88;73.38;-17125.47;4995403;28;20037;-86
2023/05/14 00:22:45;;;;;;;8.32;6.60;;;;;;;-148.88;73.41;-17125.47;5013149;28;20017;-86
2023/05/14 00:25:11;;;;;;;8.40;6.82;;;;;;;-148.88;75.96;-17125.47;5012913;28;20028;-86
2023/05/14 00:27:36;;;;;;;9.60;7.28;;;;;;;-148.88;75.74;-17125.47;4995467;28;20030;-86
2023/05/14 00:30:05;;;;;;;10.63;6.70;;;;;;;-148.88;73.78;-17125.47;5012940;28;20060;-86
2023/05/14 00:32:30;;;;;;;7.10;6.32;;;;;;;-148.88;74.48;-17125.47;4996628;28;20032;-86
2023/05/14 00:34:56;;;;;;;8.75;7.20;;;;;;;-148.88;74.70;-17125.47;5012900;28;20030;-86
2023/05/14 00:37:21;;;;;;;10.27;8.20;;;;;;;-148.88;75.13;-17125.47;4995289;28;20034;-86
2023/05/14 00:39:47;;;;;;;9.75;8.70;;;;;;;-148.88;75.62;-17125.47;4995562;28;20113;-86
2023/05/14 00:42:12;;;;;;;9.18;7.80;;;;;;;-148.88;75.80;-17125.47;4995310;28;20504;-86
2023/05/14 00:44:37;;;;;;;9.18;8.23;;;;;;;-148.88;76.05;-17125.47;5012971;28;20499;-86
2023/05/14 00:47:03;;;;;;;10.10;8.05;;;;;;;-148.88;77.58;-17125.47;4995240;28;20030;-86
2023/05/14 00:49:29;;;;;;;10.45;7.05;;;;;;;-148.88;77.16;-17125.47;4995186;28;20543;-87
2023/05/14 00:51:57;;;;;;;10.18;7.78;;;;;;;-148.88;79.14;-17125.47;4995383;28;20026;-86
2023/05/14 00:54:23;;;;;;;10.55;8.90;;;;;;;-148.88;82.20;-17125.47;4995726;28;20080;-86
2023/05/14 00:56:49;;;;;;;10.88;9.77;;;;;;;-148.88;87.82;-17125.47;4998495;28;20030;-86
2023/05/14 00:59:15;;;;;;;10.73;9.35;;;;;;;-148.88;97.37;-17125.47;4996875;28;20053;-86
2023/05/14 01:01:41;;;;;;;11.20;10.10;;;;;;;-148.88;99.79;-17125.47;5013358;28;20057;-87
2023/05/14 01:04:08;;;;;;;11.93;10.60;;;;;;;-148.88;100.00;-17125.47;4995678;28;20121;-87
2023/05/14 01:06:45;;;;;;;12.73;10.20;;;;;;;-148.88;100.00;-17125.47;5013910;28;20032;-86
2023/05/14 01:09:21;;;;;;;11.40;9.80;;;;;;;-148.88;97.52;-17125.47;5016130;28;20022;-86
2023/05/14 01:12:06;;;;;;;11.95;10.65;;;;;;;-148.88;96.64;-17125.47;5016213;28;20109;-86
2023/05/14 01:15:11;;;;;;;12.85;10.57;;;;;;;-148.88;96.35;-17125.47;5016692;28;20026;-86
2023/05/14 01:17:41;;;;;;;13.48;10.82;;;;;;;-148.88;94.81;-17125.47;5015394;28;20514;-86
2023/05/14 01:20:07;;;;;;;13.73;10.80;;;;;;;-148.88;93.95;-17125.47;5016554;28;20022;-86
2023/05/14 01:22:33;;;;;;;13.27;11.30;;;;;;;-148.88;94.43;-17125.47;4998396;28;20103;-87
2023/05/14 01:24:58;;;;;;;12.93;10.77;;;;;;;-148.88;94.04;-17125.47;4998332;28;20057;-86
2023/05/14 01:27:49;;;;;;;15.55;10.93;;;;;;;-148.88;92.90;-17125.47;5016333;28;20030;-86
2023/05/14 01:30:24;;;;;;;12.52;10.38;;;;;;;-148.88;92.53;-17125.47;4998949;28;20025;-86
2023/05/14 01:32:56;;;;;;;11.77;7.45;;;;;;;-148.88;94.28;-17125.47;4998215;28;20026;-87
2023/05/14 01:35:24;;;;;;;11.27;10.10;;;;;;;-148.88;93.34;-17125.47;5015724;28;20029;-86
2023/05/14 01:37:52;;;;;;;13.77;11.32;;;;;;;-148.88;95.08;-17125.47;5015632;28;20018;-86
2023/05/14 01:40:18;;;;;;;13.95;11.13;;;;;;;-148.88;96.03;-17125.47;4998009;28;20037;-86
2023/05/14 01:42:44;;;;;;;14.82;11.55;;;;;;;-148.88;97.46;-17125.47;5015477;28;20395;-86
2023/05/14 01:45:09;;;;;;;12.95;11.45;;;;;;;-148.88;97.51;-17125.47;4997845;28;20549;-86
2023/05/14 01:47:35;;;;;;;13.18;11.27;;;;;;;-148.88;98.23;-17125.47;5015682;28;20068;-86
2023/05/14 01:50:00;;;;;;;16.25;11.13;;;;;;;-148.88;98.10;-17125.47;5016037;28;20029;-86
2023/05/14 01:52:27;;;;;;;12.32;11.13;;;;;;;-148.88;99.22;-17125.47;4998523;28;20140;-86
2023/05/14 01:54:52;;;;;;;14.90;11.98;;;;;;;-148.88;100.00;-17125.47;5015579;28;20053;-86
2023/05/14 01:57:17;;;;;;;14.52;12.35;;;;;;;-148.88;100.00;-17125.47;4998395;28;20049;-86
2023/05/14 01:59:43;;;;;;;13.85;12.38;;;;;;;-148.88;100.00;-17125.47;5030066;22;20053;-78
2023/05/14 02:02:08;;;;;;;14.20;12.05;;;;;;;-148.88;100.00;-17125.47;5017913;28;20022;-78
2023/05/14 02:04:33;;;;;;;14.48;11.20;;;;;;;-148.88;100.00;-17125.47;5000580;28;20026;-78
2023/05/14 02:06:59;;;;;;;13.20;11.00;;;;;;;-148.88;100.00;-17125.47;5018766;28;20085;-77
2023/05/14 02:09:24;;;;;;;12.63;10.88;;;;;;;-148.88;100.00;-17125.47;5002121;28;20026;-77
2023/05/14 02:11:52;;;;;;;12.70;10.55;;;;;;;-148.88;98.93;-17125.47;5019809;28;20485;-78
2023/05/14 02:14:17;;;;;;;15.00;12.75;;;;;;;-148.88;100.00;-17125.47;5019691;28;20556;-78
2023/05/14 02:16:43;;;;;;;14.15;12.40;;;;;;;-148.88;100.00;-17125.47;5020544;28;20060;-78
2023/05/14 02:19:08;;;;;;;12.38;11.07;;;;;;;-148.88;99.64;-17125.47;5019940;28;20528;-78
2023/05/14 02:21:33;;;;;;;17.13;12.77;;;;;;;-148.88;99.91;-17125.47;5020313;28;20414;-78
2023/05/14 02:23:59;;;;;;;13.93;12.50;;;;;;;-148.88;100.00;-17125.47;5020856;28;20025;-78
2023/05/14 02:26:26;;;;;;;15.75;13.65;;;;;;;-148.88;100.00;-17125.47;5020362;28;20036;-78
2023/05/14 02:28:52;;;;;;;13.88;12.23;;;;;;;-148.88;100.00;-17125.47;5020537;28;20022;-78
2023/05/14 02:31:18;;;;;;;13.23;11.50;;;;;;;-148.88;100.00;-17125.47;5019351;28;20033;-78
2023/05/14 02:33:43;;;;;;;14.35;12.95;;;;;;;-148.88;100.00;-17125.47;5000513;28;20017;-78
2023/05/14 02:36:09;;;;;;;13.45;11.70;;;;;;;-148.88;100.00;-17125.47;5000383;28;20029;-78
2023/05/14 02:38:34;;;;;;;13.20;11.90;;;;;;;-148.88;100.00;-17125.47;5017805;28;20113;-78
2023/05/14 02:41:00;;;;;;;15.02;11.70;;;;;;;-148.88;99.69;-17125.47;5018110;28;20014;-78
2023/05/14 02:43:25;;;;;;;13.15;11.45;;;;;;;-148.88;99.97;-17125.47;5018735;28;20061;-78
2023/05/14 02:45:50;;;;;;;13.02;11.30;;;;;;;-148.88;99.33;-17125.47;5018395;28;20108;-78
2023/05/14 02:48:16;;;;;;;15.40;11.65;;;;;;;-148.88;99.89;-17125.47;5018772;28;20136;-78
2023/05/14 02:50:41;;;;;;;14.07;11.35;;;;;;;-148.88;99.57;-17125.47;5018867;28;20030;-78
2023/05/14 02:53:07;;;;;;;12.30;11.00;;;;;;;-148.88;100.00;-17125.47;5002016;28;20026;-78
2023/05/14 02:55:33;;;;;;;12.93;11.60;;;;;;;-148.88;100.00;-17125.47;5018909;28;20085;-78
2023/05/14 02:57:58;;;;;;;15.05;11.55;;;;;;;-148.88;100.00;-17125.47;5019671;28;20049;-78
2023/05/14 03:00:23;;;;;;;13.82;11.93;;;;;;;-148.88;100.00;-17125.47;5019652;28;20033;-78
2023/05/14 03:02:49;;;;;;;12.95;11.65;;;;;;;-148.88;100.00;-17125.47;5002792;28;20098;-78
2023/05/14 03:05:14;;;;;;;13.18;11.75;;;;;;;-148.88;100.00;-17125.47;5002135;28;20032;-78
2023/05/14 03:07:39;;;;;;;14.38;11.80;;;;;;;-148.88;100.00;-17125.47;5018854;28;20057;-78
2023/05/14 03:10:05;;;;;;;13.18;11.57;;;;;;;-148.88;100.00;-17125.47;5000403;28;20034;-78
2023/05/14 03:12:31;;;;;;;15.02;11.85;;;;;;;-148.88;100.00;-17125.47;5017490;28;20026;-78
2023/05/14 03:14:56;;;;;;;13.68;11.95;;;;;;;-148.88;100.00;-17125.47;4999071;28;20022;-78
2023/05/14 03:17:21;;;;;;;13.20;11.68;;;;;;;-148.88;100.00;-17125.47;5016694;28;20048;-78
2023/05/14 03:19:47;;;;;;;13.43;11.52;;;;;;;-148.88;100.00;-17125.47;5016934;28;20018;-78
2023/05/14 03:22:12;;;;;;;12.50;11.00;;;;;;;-148.88;100.00;-17125.47;4999341;28;20404;-78
2023/05/14 03:24:39;;;;;;;12.57;11.35;;;;;;;-148.88;100.00;-17125.47;5017508;28;20033;-78
2023/05/14 03:27:05;;;;;;;12.77;11.43;;;;;;;-148.88;100.00;-17125.47;5018064;28;20026;-78
2023/05/14 03:29:30;;;;;;;11.88;10.73;;;;;;;-148.88;100.00;-17125.47;5018256;28;20087;-78
2023/05/14 03:31:56;;;;;;;13.20;10.55;;;;;;;-148.88;100.00;-17125.47;5001244;28;20032;-78
2023/05/14 03:34:21;;;;;;;14.52;11.65;;;;;;;-148.88;100.00;-17125.47;5019169;28;20033;-78
2023/05/14 03:36:46;;;;;;;13.18;11.77;;;;;;;-148.88;100.00;-17125.47;5019158;28;20075;-78
2023/05/14 03:39:18;;;;;;;13.25;11.82;;;;;;;-148.88;100.00;-17125.47;5019250;28;20037;-78
2023/05/14 03:41:44;;;;;;;13.55;12.07;;;;;;;-148.88;100.00;-17125.47;5001730;28;20022;-78
2023/05/14 03:44:09;;;;;;;13.60;11.88;;;;;;;-148.88;100.00;-17125.47;5017640;28;20035;-78
2023/05/14 03:46:34;;;;;;;14.07;12.55;;;;;;;-148.88;100.00;-17125.47;5016518;28;20106;-78
2023/05/14 03:49:00;;;;;;;12.75;11.45;;;;;;;-148.88;100.00;-17125.47;5016698;28;20507;-78
2023/05/14 03:51:27;;;;;;;15.70;12.73;;;;;;;-148.88;100.00;-17125.47;5018250;28;20032;-78
2023/05/14 03:53:53;;;;;;;14.30;12.35;;;;;;;-148.88;100.00;-17125.47;5016138;28;20052;-78
2023/05/14 03:56:18;;;;;;;13.35;11.95;;;;;;;-148.88;100.00;-17125.47;4999720;28;20026;-78
2023/05/14 03:58:43;;;;;;;15.05;12.25;;;;;;;-148.88;100.00;-17125.47;5000377;28;20021;-78
2023/05/14 04:01:09;;;;;;;13.77;12.23;;;;;;;-148.88;100.00;-17125.47;5018704;28;20033;-78
2023/05/14 04:03:34;;;;;;;13.75;12.40;;;;;;;-148.88;100.00;-17125.47;5019116;28;20117;-78
2023/05/14 04:06:00;;;;;;;14.32;12.82;;;;;;;-148.88;100.00;-17125.47;5000920;28;20022;-78
2023/05/14 04:08:25;;;;;;;14.20;12.43;;;;;;;-148.88;100.00;-17125.47;5001305;28;20021;-78
2023/05/14 04:10:51;;;;;;;14.23;12.82;;;;;;;-148.88;100.00;-17125.47;5001958;28;20030;-78
2023/05/14 04:13:16;;;;;;;14.80;12.63;;;;;;;-148.88;100.00;-17125.47;5002380;28;20025;-78
2023/05/14 04:15:42;;;;;;;14.90;12.75;;;;;;;-148.88;100.00;-17125.47;5020581;28;20400;-78
2023/05/14 04:18:07;;;;;;;15.07;9.52;;;;;;;-148.88;100.00;-17125.47;5002060;28;20038;-79
2023/05/14 04:20:32;;;;;;;15.10;8.85;;;;;;;-148.88;100.00;-17125.47;5002992;28;20017;-78
2023/05/14 04:22:58;;;;;;;16.88;13.05;;;;;;;-148.88;100.00;-17125.47;5002919;28;20053;-78
2023/05/14 04:25:23;;;;;;;13.75;12.35;;;;;;;-148.88;100.00;-17125.47;5020367;28;20072;-78
2023/05/14 04:27:48;;;;;;;14.80;12.75;;;;;;;-148.88;100.00;-17125.47;5019435;28;20033;-78
2023/05/14 04:30:14;;;;;;;14.32;12.82;;;;;;;-148.88;100.00;-17125.47;4998604;28;20029;-78
2023/05/14 04:32:39;;;;;;;17.45;13.77;;;;;;;-148.88;100.00;-17125.47;4998423;28;20511;-78
2023/05/14 04:35:06;;;;;;;15.23;13.35;;;;;;;-148.88;100.00;-17125.47;4999535;28;20075;-78
2023/05/14 04:37:31;;;;;;;16.15;13.18;;;;;;;-148.88;100.00;-17125.47;5000303;28;20026;-78
2023/05/14 04:39:57;;;;;;;14.35;12.43;;;;;;;-148.88;100.00;-17125.47;5018896;28;20018;-78
2023/05/14 04:42:22;;;;;;;14.85;13.05;;;;;;;-148.88;100.00;-17125.47;5003133;28;20022;-78
2023/05/14 04:44:48;;;;;;;13.63;12.15;;;;;;;-148.88;100.00;-17125.47;5004727;28;20021;-78
2023/05/14 04:47:14;;;;;;;15.27;12.95;;;;;;;-148.88;100.00;-17125.47;5022678;28;20318;-78
2023/05/14 04:49:39;;;;;;;13.65;12.35;;;;;;;-148.88;100.00;-17125.47;5022793;28;20033;-78
2023/05/14 04:52:05;;;;;;;15.10;13.20;;;;;;;-148.88;100.00;-17125.47;5005533;28;20052;-78
2023/05/14 04:54:30;;;;;;;20.10;14.05;;;;;;;-148.88;100.00;-17125.47;5023591;28;20018;-79
2023/05/14 04:57:02;;;;;;;14.57;12.95;;;;;;;-148.88;100.00;-17125.47;5019813;28;20129;-78
2023/05/14 04:59:28;;;;;;;14.63;12.60;;;;;;;-148.88;100.00;-17125.47;5016948;28;20092;-76
2023/05/14 05:01:54;;;;;;;15.27;8.60;;;;;;;-148.88;100.00;-17125.47;5016834;28;20036;-77
2023/05/14 05:04:19;;;;;;;15.38;13.77;;;;;;;-148.88;100.00;-17125.47;5017275;28;20029;-77
2023/05/14 05:06:45;;;;;;;15.15;13.55;;;;;;;-148.88;100.00;-17125.47;5019789;28;20029;-77
2023/05/14 05:09:10;;;;;;;14.50;13.00;;;;;;;-148.88;100.00;-17125.47;5020097;28;20022;-76
2023/05/14 05:11:36;;;;;;;14.23;12.88;;;;;;;-148.88;100.00;-17125.47;5019619;28;20116;-76
2023/05/14 05:14:02;;;;;;;13.93;12.27;;;;;;;-148.88;100.00;-17125.47;5019657;28;20022;-76
2023/05/14 05:16:27;;;;;;;16.05;12.52;;;;;;;-148.88;100.00;-17125.47;5002187;28;20033;-77
2023/05/14 05:18:52;;;;;;;14.68;13.18;;;;;;;-148.88;100.00;-17125.47;5019900;28;20026;-77
2023/05/14 05:21:18;;;;;;;15.68;13.55;;;;;;;-148.88;100.00;-17125.47;5002068;28;20097;-77
2023/05/14 05:23:43;;;;;;;14.30;12.68;;;;;;;-148.88;100.00;-17125.47;5020161;28;20032;-76
2023/05/14 05:26:08;;;;;;;14.55;12.52;;;;;;;-148.88;100.00;-17125.47;5002217;28;20018;-77
2023/05/14 05:28:34;;;;;;;13.65;12.10;;;;;;;-148.88;100.00;-17125.47;5001802;28;20653;-77
2023/05/14 05:30:59;;;;;;;14.55;13.07;;;;;;;-148.88;100.00;-17125.47;5018227;28;20030;-84
2023/05/14 05:33:24;;;;;;;22.70;13.18;;;;;;;-148.88;100.00;-17125.47;5000824;28;20088;-77
2023/05/14 05:35:51;;;;;;;14.52;12.20;;;;;;;-148.88;100.00;-17125.47;5000287;28;20018;-78
2023/05/14 05:38:17;;;;;;;13.55;12.15;;;;;;;-148.88;100.00;-17125.47;5000441;28;20076;-78
2023/05/14 05:40:42;;;;;;;13.75;11.90;;;;;;;-148.88;100.00;-17125.47;5017317;28;20393;-78
2023/05/14 05:43:08;;;;;;;12.18;11.00;;;;;;;-148.88;100.00;-17125.47;5017144;28;20029;-74
2023/05/14 05:45:33;;;;;;;12.05;10.82;;;;;;;-148.88;100.00;-17125.47;5015816;28;20536;-77
2023/05/14 05:47:58;;;;;;;11.75;10.30;;;;;;;-148.88;100.00;-17125.47;5018117;28;20034;-77
2023/05/14 05:50:25;;;;;;;12.10;10.88;;;;;;;-148.88;100.00;-17125.47;5001038;28;20021;-77
2023/05/14 05:52:51;;;;;;;11.27;10.18;;;;;;;-148.88;100.00;-17125.47;5018867;28;20029;-77
2023/05/14 05:55:16;;;;;;;10.73;9.70;;;;;;;-148.88;100.00;-17125.47;5001127;28;20025;-77
2023/05/14 05:57:41;;;;;;;11.57;10.38;;;;;;;-148.88;100.00;-17125.47;5019003;28;20495;-77
2023/05/14 06:00:14;;;;;;;11.15;9.95;;;;;;;-148.88;100.00;-17125.47;5002256;28;20022;-77
2023/05/14 06:02:42;;;;;;;12.82;10.65;;;;;;;-148.88;100.00;-17125.47;5019895;28;20116;-77
2023/05/14 06:05:09;;;;;;;12.27;9.80;;;;;;;-148.88;100.00;-17125.47;5002383;28;20087;-78
2023/05/14 06:07:35;;;;;;;12.73;10.15;;;;;;;-148.88;100.00;-17125.47;5001911;28;20116;-77
2023/05/14 06:10:00;;;;;;;12.23;11.02;;;;;;;-148.88;100.00;-17125.47;4999137;28;20049;-78
2023/05/14 06:12:26;;;;;;;12.32;11.10;;;;;;;-148.88;100.00;-17125.47;5016863;28;20033;-78
2023/05/14 06:14:54;;;;;;;13.55;10.02;;;;;;;-148.88;100.00;-17125.47;5016329;28;20029;-77
2023/05/14 06:17:19;;;;;;;12.07;10.00;;;;;;;-148.88;99.28;-17125.47;4998807;28;20026;-77
2023/05/14 06:19:45;;;;;;;11.85;9.95;;;;;;;-148.88;100.00;-17125.47;4999029;28;20036;-77
2023/05/14 06:22:10;;;;;;;11.10;9.05;;;;;;;-148.88;99.96;-17125.47;5000523;28;20022;-77
2023/05/14 06:24:35;;;;;;;10.68;9.57;;;;;;;-148.88;98.97;-17125.47;5017342;28;20064;-76
2023/05/14 06:27:01;;;;;;;10.98;8.43;;;;;;;-148.88;96.86;-17125.47;5016857;28;20025;-76
2023/05/14 06:29:26;;;;;;;10.90;8.98;;;;;;;-148.88;95.70;-17125.47;5016191;28;20051;-76
2023/05/14 06:31:52;;;;;;;10.45;8.45;;;;;;;-148.88;96.03;-17125.47;5015778;28;20021;-77
2023/05/14 06:34:17;;;;;;;10.15;9.10;;;;;;;-148.88;96.23;-17125.47;5000684;28;20021;-77
2023/05/14 06:36:43;;;;;;;10.38;8.70;;;;;;;-148.88;96.40;-17125.47;5018351;28;20022;-76
2023/05/14 06:39:08;;;;;;;10.40;9.02;;;;;;;-148.88;96.40;-17125.47;5015709;28;20544;-76
2023/05/14 06:41:34;;;;;;;10.52;9.43;;;;;;;-148.88;97.14;-17125.47;5015781;28;20022;-76
2023/05/14 06:43:59;;;;;;;10.65;9.52;;;;;;;-148.88;97.73;-17125.47;5015057;28;20460;-77
2023/05/14 06:46:25;;;;;;;10.82;9.35;;;;;;;-148.88;97.63;-17125.47;5014732;28;20076;-77
2023/05/14 06:48:50;;;;;;;10.98;9.88;;;;;;;-148.88;97.85;-17125.47;5014995;28;20480;-77
2023/05/14 06:51:15;;;;;;;10.25;9.25;;;;;;;-148.88;98.18;-17125.47;5014987;28;20075;-77
2023/05/14 06:53:41;;;;;;;10.85;9.35;;;;;;;-148.88;96.75;-17125.47;4997042;28;20079;-77
2023/05/14 06:56:06;;;;;;;9.82;8.82;;;;;;;-148.88;97.43;-17125.47;5015546;28;20021;-76
2023/05/14 06:58:32;;;;;;;10.85;9.40;;;;;;;-148.88;97.35;-17125.47;5015959;28;20026;-76
2023/05/14 07:00:57;;;;;;;12.20;9.60;;;;;;;-148.88;97.93;-17125.47;5015898;28;20511;-77
2023/05/14 07:03:23;;;;;;;11.50;9.55;;;;;;;-148.88;98.82;-17125.47;5015988;28;20400;-77
2023/05/14 07:05:48;;;;;;;11.23;10.02;;;;;;;-148.88;100.00;-17125.47;4996602;28;20032;-77
2023/05/14 07:08:14;;;;;;;11.05;9.95;;;;;;;-148.88;100.00;-17125.47;5015196;28;20026;-77
2023/05/14 07:10:39;;;;;;;11.40;10.05;;;;;;;-148.88;99.88;-17125.47;4997393;28;20113;-77
2023/05/14 07:13:05;;;;;;;11.68;9.48;;;;;;;-148.88;100.00;-17125.47;5015463;28;20036;-77
2023/05/14 07:15:30;;;;;;;11.10;9.88;;;;;;;-148.88;100.00;-17125.47;4998047;28;20014;-78
2023/05/14 07:17:56;;;;;;;11.95;10.00;;;;;;;-148.88;100.00;-17125.47;5015971;28;20550;-78
2023/05/14 07:20:22;;;;;;;10.63;9.55;;;;;;;-148.88;100.00;-17125.47;5015503;28;20029;-78
2023/05/14 07:22:48;;;;;;;11.00;10.00;;;;;;;-148.88;99.21;-17125.47;5015865;28;20029;-78
2023/05/14 07:25:14;;;;;;;13.15;9.77;;;;;;;-148.88;98.75;-17125.47;5015514;28;20030;-78
2023/05/14 07:27:39;;;;;;;11.23;9.13;;;;;;;-148.88;98.36;-17125.47;4997513;28;20085;-78
2023/05/14 07:30:06;;;;;;;10.60;9.50;;;;;;;-148.88;99.76;-17125.47;5015575;28;20061;-78
2023/05/14 07:32:31;;;;;;;10.02;9.00;;;;;;;-148.88;98.19;-17125.47;5015355;28;20025;-77
2023/05/14 07:34:57;;;;;;;10.38;9.10;;;;;;;-148.88;99.51;-17125.47;4997526;28;20374;-77
2023/05/14 07:37:24;;;;;;;9.35;8.45;;;;;;;-148.88;97.29;-17125.47;5015123;28;20148;-78
2023/05/14 07:39:50;;;;;;;9.70;8.70;;;;;;;-148.88;96.46;-17125.47;4997570;28;20022;-78
2023/05/14 07:42:15;;;;;;;9.57;8.23;;;;;;;-148.88;95.10;-17125.47;5016058;28;20491;-78
2023/05/14 07:44:41;;;;;;;9.65;8.68;;;;;;;-148.88;95.59;-17125.47;4997235;28;20026;-77
2023/05/14 07:47:07;;;;;;;11.80;8.52;;;;;;;-148.88;96.27;-17125.47;4998127;28;20033;-77
2023/05/14 07:49:33;;;;;;;9.13;8.13;;;;;;;-148.88;96.56;-17125.47;4998660;28;20025;-77
2023/05/14 07:51:58;;;;;;;9.40;7.95;;;;;;;-148.88;95.65;-17125.47;5015230;28;20026;-77
2023/05/14 07:54:24;;;;;;;9.60;8.57;;;;;;;-148.88;95.96;-17125.47;5015890;28;20030;-77
2023/05/14 07:56:49;;;;;;;9.02;8.07;;;;;;;-148.88;96.97;-17125.47;4997905;28;20040;-78
2023/05/14 07:59:14;;;;;;;7.97;7.00;;;;;;;-148.88;92.96;-17125.47;4996741;28;20447;-77
2023/05/14 08:01:40;;;;;;;9.38;7.78;;;;;;;-148.88;95.76;-17125.47;5014359;28;20029;-78
2023/05/14 08:04:06;;;;;;;9.35;7.60;;;;;;;-148.88;94.53;-17125.47;4997014;28;20087;-78
2023/05/14 08:06:32;;;;;;;7.07;6.47;;;;;;;-148.88;93.69;-17125.47;5014590;28;20018;-78
2023/05/14 08:08:57;;;;;;;9.23;7.55;;;;;;;-148.88;92.61;-17125.47;5014417;28;20022;-78
2023/05/14 08:11:23;;;;;;;7.25;6.55;;;;;;;-148.88;93.06;-17125.47;4997284;28;20026;-77
2023/05/14 08:13:48;;;;;;;7.28;6.20;;;;;;;-148.88;91.53;-17125.47;4998169;28;20022;-77
2023/05/14 08:16:13;;;;;;;7.40;5.90;;;;;;;-148.88;89.07;-17125.47;5017550;28;20014;-77
2023/05/14 08:18:39;;;;;;;7.13;6.43;;;;;;;-148.88;89.85;-17125.47;5020448;28;20029;-78
2023/05/14 08:21:05;;;;;;;10.50;5.88;;;;;;;-148.88;88.84;-17125.47;5020771;28;20041;-77
2023/05/14 08:23:30;;;;;;;8.43;5.85;;;;;;;-148.88;88.71;-17125.47;5002852;28;20034;-78
2023/05/14 08:25:55;;;;;;;6.28;5.55;;;;;;;-148.88;87.44;-17125.47;5019761;28;20135;-78
2023/05/14 08:28:21;;;;;;;6.22;5.40;;;;;;;-148.88;82.87;-17125.47;5020636;28;20450;-78
2023/05/14 08:30:46;;;;;;;5.78;5.13;;;;;;;-148.88;83.32;-17125.47;5020073;28;20053;-78
2023/05/14 08:33:12;;;;;;;6.15;5.10;;;;;;;-148.88;78.05;-17125.47;5002046;28;20113;-78
2023/05/14 08:35:37;;;;;;;6.05;5.38;;;;;;;-148.88;82.67;-17125.47;5018981;28;20424;-78
2023/05/14 08:38:02;;;;;;;6.47;5.20;;;;;;;-148.88;82.27;-17125.47;5017801;28;20447;-78
2023/05/14 08:40:28;;;;;;;6.22;5.57;;;;;;;-148.88;83.45;-17125.47;5017600;28;20080;-78
2023/05/14 08:42:55;;;;;;;6.88;4.95;;;;;;;-148.88;79.63;-17125.47;5017702;28;20025;-78
2023/05/14 08:45:24;;;;;;;6.00;4.88;;;;;;;-148.88;81.07;-17125.47;5017520;28;20055;-78
2023/05/14 08:47:50;;;;;;;7.28;4.43;;;;;;;-148.88;80.79;-17125.47;5017879;28;20112;-77
2023/05/14 08:50:17;;;;;;;4.90;4.38;;;;;;;-148.88;79.88;-17125.47;5017460;28;20144;-77
2023/05/14 08:52:43;;;;;;;5.18;4.68;;;;;;;-148.88;78.96;-17125.47;5018337;28;20384;-77
2023/05/14 08:55:10;;;;;;;5.13;4.35;;;;;;;-148.88;75.00;-17125.47;5018097;28;20013;-77
2023/05/14 08:57:36;;;;;;;5.22;4.22;;;;;;;-148.88;71.47;-17125.47;5001129;28;20037;-77
2023/05/14 09:00:12;;;;;;;6.63;3.67;;;;;;;-148.88;74.67;-17125.47;5000319;28;20026;-77
2023/05/14 09:02:39;;;;;;;4.97;3.70;;;;;;;-148.88;71.55;-17125.47;5018541;28;20029;-77
2023/05/14 09:05:06;;;;;;;4.20;3.80;;;;;;;-148.88;69.16;-17125.47;5018371;28;20393;-77
2023/05/14 09:07:32;;;;;;;5.38;3.97;;;;;;;-148.88;70.26;-17125.47;5018197;28;20029;-77
2023/05/14 09:09:58;;;;;;;5.25;4.18;;;;;;;-148.88;69.98;-17125.47;5000241;28;20032;-78
2023/05/14 09:12:24;;;;;;;4.68;3.90;;;;;;;-148.88;73.17;-17125.47;5017410;28;20029;-77
2023/05/14 09:14:49;;;;;;;4.43;3.80;;;;;;;-148.88;73.01;-17125.47;4999435;28;20501;-78
2023/05/14 09:17:16;;;;;;;4.10;3.67;;;;;;;-148.88;74.98;-17125.47;4999102;28;20385;-78
2023/05/14 09:19:42;;;;;;;5.57;4.00;;;;;;;-148.88;74.68;-17125.47;5016937;28;20486;-78
2023/05/14 09:22:11;;;;;;;4.10;3.65;;;;;;;-148.88;68.47;-17125.47;5016885;28;20030;-78
2023/05/14 09:24:40;;;;;;;3.88;3.17;;;;;;;-148.88;68.69;-17125.47;4998914;28;20029;-77
2023/05/14 09:27:06;;;;;;;3.75;3.30;;;;;;;-148.88;64.29;-17125.47;5016158;28;20038;-75
2023/05/14 09:29:33;;;;;;;4.55;3.10;;;;;;;-148.88;63.77;-17125.47;4999378;28;20033;-77
2023/05/14 09:32:03;;;;;;;4.22;3.40;;;;;;;-148.88;64.31;-17125.47;5017772;28;20029;-78
2023/05/14 09:34:31;;;;;;;3.53;2.78;;;;;;;-148.88;62.04;-17125.47;5017835;28;20053;-77
2023/05/14 09:36:57;;;;;;;4.60;2.53;;;;;;;-148.88;61.89;-17125.47;5018044;28;20029;-78
2023/05/14 09:39:24;;;;;;;5.07;2.90;;;;;;;-148.88;58.45;-17125.47;5018151;28;20481;-77
2023/05/14 09:41:50;;;;;;;3.97;2.60;;;;;;;-148.88;58.21;-17125.47;5020383;28;20038;-77
2023/05/14 09:44:16;;;;;;;3.40;2.60;;;;;;;-148.88;58.65;-17125.47;5002738;28;20405;-77
2023/05/14 09:46:41;;;;;;;3.10;2.78;;;;;;;-148.88;58.73;-17125.47;5019414;28;20029;-78
2023/05/14 09:49:07;;;;;;;3.30;2.80;;;;;;;-148.88;59.08;-17125.47;4998624;28;20061;-76
2023/05/14 09:51:32;;;;;;;3.00;2.40;;;;;;;-148.88;57.60;-17125.47;5016250;28;20026;-76
2023/05/14 09:53:57;;;;;;;3.33;2.53;;;;;;;-148.88;54.94;-17125.47;5016236;28;20021;-76
2023/05/14 09:56:23;;;;;;;6.43;3.30;;;;;;;-148.88;54.27;-17125.47;4998159;28;20025;-76
2023/05/14 09:58:48;;;;;;;3.53;2.40;;;;;;;-148.88;53.54;-17125.47;4998257;28;20033;-76
2023/05/14 10:01:17;;;;;;;3.33;2.72;;;;;;;-148.88;52.18;-17125.47;5021480;28;20077;-76
2023/05/14 10:03:43;;;;;;;4.28;2.67;;;;;;;-148.88;54.90;-17125.47;5021786;28;20384;-76
2023/05/14 10:06:12;;;;;;;3.17;2.55;;;;;;;-148.88;57.22;-17125.47;5020688;28;20022;-76
2023/05/14 10:08:42;;;;;;;3.38;2.30;;;;;;;-148.88;54.85;-17125.47;5002980;28;20101;-77
2023/05/14 10:11:13;;;;;;;5.13;2.33;;;;;;;-148.88;55.60;-17125.47;5019998;28;20028;-77
2023/05/14 10:13:41;;;;;;;3.17;2.40;;;;;;;-148.88;53.24;-17125.47;5019636;28;20087;-76
2023/05/14 10:16:21;;;;;;;3.22;2.50;;;;;;;-148.88;50.68;-17125.47;5018554;28;20369;-77
2023/05/14 10:18:51;;;;;;;3.42;2.70;;;;;;;-148.88;55.41;-17125.47;5018588;28;20477;-76
2023/05/14 10:21:20;;;;;;;3.35;2.20;;;;;;;-148.88;53.74;-17125.47;5018182;28;20436;-77
2023/05/14 10:23:47;;;;;;;3.00;2.47;;;;;;;-148.88;52.61;-17125.47;5016955;28;20026;-76
2023/05/14 10:26:12;;;;;;;2.67;2.13;;;;;;;-148.88;53.79;-17125.47;4998368;28;20029;-77
2023/05/14 10:28:38;;;;;;;3.10;2.35;;;;;;;-148.88;52.90;-17125.47;4997949;28;20022;-77
2023/05/14 10:31:04;;;;;;;3.67;2.15;;;;;;;-148.88;51.53;-17125.47;5015353;28;20040;-76
2023/05/14 10:33:29;;;;;;;3.00;2.10;;;;;;;-148.88;49.60;-17125.47;4997802;28;20065;-76
2023/05/14 10:36:04;;;;;;;3.72;2.20;;;;;;;-148.88;48.94;-17125.47;5015450;28;20113;-76
2023/05/14 10:38:35;;;;;;;3.75;2.17;;;;;;;-148.88;50.15;-17125.47;5004290;28;20121;-76
2023/05/14 10:41:04;;;;;;;2.92;2.25;;;;;;;-148.88;50.64;-17125.47;5021266;28;20021;-76
2023/05/14 10:43:35;;;;;;;2.78;2.22;;;;;;;-148.88;50.54;-17125.47;5020651;28;20034;-76
2023/05/14 10:46:01;;;;;;;4.47;2.67;;;;;;;-148.88;53.16;-17125.47;5001587;28;20026;-76
2023/05/14 10:48:27;;;;;;;3.75;2.50;;;;;;;-148.88;54.67;-17125.47;5019814;28;20107;-76
2023/05/14 10:50:54;;;;;;;3.17;2.58;;;;;;;-148.88;56.01;-17125.47;5018685;28;20018;-76
2023/05/14 10:53:31;;;;;;;3.22;2.40;;;;;;;-148.88;53.89;-17125.47;5017856;28;20028;-76